Time;durP1;ratioP1;P1;durP2;ratioP2;P2;SDS_P1;SDS_P2;PMS_P1;PMS_P2;Temp;Humidity;BMP_temperature;BMP_pressure;BME280_temperature;BME280_humidity;BME280_pressure;Samples;Min_cycle;Max_cycle;Signal;HPM_P1;HPM_P2
2023/01/29 00:01:13;;;;;;;1999.90;999.90;;;-1.70;99.90;;;;;;5025085;28;20447;-69
2023/01/29 00:03:41;;;;;;;1999.90;999.90;;;-2.00;99.90;;;;;;5026730;28;21112;-70
2023/01/29 00:06:09;;;;;;;1999.90;999.90;;;-2.00;99.90;;;;;;5025169;28;20494;-70
2023/01/29 00:08:38;;;;;;;1999.90;999.90;;;-1.90;99.90;;;;;;5025592;28;20446;-70
2023/01/29 00:11:06;;;;;;;1999.90;999.90;;;-1.80;99.90;;;;;;5024996;28;20982;-70
2023/01/29 00:13:33;;;;;;;1999.90;999.90;;;-1.90;99.90;;;;;;5017561;28;20422;-70
2023/01/29 00:16:00;;;;;;;1999.90;999.90;;;-1.80;99.90;;;;;;5025198;28;20438;-69
2023/01/29 00:18:28;;;;;;;1999.90;999.90;;;-1.80;99.90;;;;;;5024190;28;20438;-70
2023/01/29 00:20:55;;;;;;;1999.90;999.90;;;-1.70;99.90;;;;;;5026068;28;20518;-69
2023/01/29 00:23:22;;;;;;;1999.90;999.90;;;-1.70;99.90;;;;;;5022299;28;20438;-70
2023/01/29 00:25:50;;;;;;;1999.90;999.90;;;-1.60;99.90;;;;;;5023371;28;20436;-68
2023/01/29 00:28:17;;;;;;;1999.90;999.90;;;-1.00;99.90;;;;;;5016852;28;20955;-70
2023/01/29 00:30:44;;;;;;;1999.90;999.90;;;-1.50;99.90;;;;;;5027767;28;20481;-71
2023/01/29 00:33:12;;;;;;;1999.90;999.90;;;-1.40;99.90;;;;;;5027244;28;20423;-71
2023/01/29 00:35:40;;;;;;;1999.90;999.90;;;-1.20;99.90;;;;;;5027292;28;20466;-68
2023/01/29 00:38:06;;;;;;;1999.90;999.90;;;-1.50;99.90;;;;;;5026759;28;20434;-71
2023/01/29 00:44:56;;;;;;;1999.90;999.90;;;-1.20;99.90;;;;;;5026422;28;20465;-70
2023/01/29 00:46:06;;;;;;;1999.90;999.90;;;-1.50;99.90;;;;;;5024311;28;20945;-70
2023/01/29 00:48:33;;;;;;;1999.90;999.90;;;-1.20;99.90;;;;;;5032033;28;20442;-71
2023/01/29 00:50:59;;;;;;;1999.90;999.90;;;-1.20;99.90;;;;;;5031559;28;20944;-69
2023/01/29 00:53:26;;;;;;;1999.90;999.90;;;-1.20;99.90;;;;;;5030243;28;20468;-71
2023/01/29 00:55:53;;;;;;;1999.90;999.90;;;-1.40;99.90;;;;;;5018793;28;21194;-70
2023/01/29 00:58:21;;;;;;;1999.90;999.90;;;-1.50;99.90;;;;;;5024798;28;20438;-72
2023/01/29 01:00:49;;;;;;;1999.90;999.90;;;-1.50;99.90;;;;;;5031163;28;20439;-72
2023/01/29 01:03:15;;;;;;;1999.90;999.90;;;-1.50;99.90;;;;;;5029914;28;22943;-71
2023/01/29 01:05:42;;;;;;;1999.90;999.90;;;-1.30;99.90;;;;;;5030073;28;20434;-72
2023/01/29 01:10:59;;;;;;;1999.90;999.90;;;-1.50;99.90;;;;;;5021885;28;20452;-71
2023/01/29 01:13:25;;;;;;;1999.90;999.90;;;-1.60;99.90;;;;;;5027192;28;20434;-72
2023/01/29 01:15:53;;;;;;;1999.90;999.90;;;-1.60;99.90;;;;;;5030903;28;20438;-70
2023/01/29 01:18:21;;;;;;;1999.90;999.90;;;-1.60;99.90;;;;;;5029961;28;20500;-71
2023/01/29 01:20:50;;;;;;;1999.90;999.90;;;-1.60;99.90;;;;;;5030745;28;20834;-71
2023/01/29 01:23:17;;;;;;;1999.90;999.90;;;-1.70;99.90;;;;;;5028116;28;20512;-70
2023/01/29 01:25:44;;;;;;;1999.90;999.90;;;-1.70;99.90;;;;;;5017264;28;20563;-71
2023/01/29 01:28:11;;;;;;;1999.90;999.90;;;-1.70;99.90;;;;;;5028524;28;20462;-72
2023/01/29 01:30:38;;;;;;;1999.90;999.90;;;-1.70;99.90;;;;;;5030812;28;20485;-71
2023/01/29 01:33:05;;;;;;;1999.90;999.90;;;-1.60;99.90;;;;;;5030023;28;20430;-70
2023/01/29 01:35:32;;;;;;;1999.90;999.90;;;-1.70;99.90;;;;;;5030854;28;20438;-71
2023/01/29 01:37:59;;;;;;;1999.90;999.90;;;-1.70;99.90;;;;;;5028679;28;20431;-70
2023/01/29 01:40:26;;;;;;;1999.90;999.90;;;-1.70;99.90;;;;;;5018825;28;20973;-71
2023/01/29 01:42:55;;;;;;;1999.90;999.90;;;-1.80;99.90;;;;;;5026604;28;20850;-71
2023/01/29 01:45:26;;;;;;;1999.90;999.90;;;-1.80;99.90;;;;;;5029576;28;21199;-72
2023/01/29 01:47:56;;;;;;;1999.90;999.90;;;-1.70;99.90;;;;;;5030658;28;20439;-72
2023/01/29 01:50:29;;;;;;;1999.90;999.90;;;-1.60;99.90;;;;;;5029090;28;20923;-71
2023/01/29 01:52:59;;;;;;;1999.90;999.90;;;-1.60;99.90;;;;;;5024177;28;20436;-69
2023/01/29 01:55:29;;;;;;;1999.90;999.90;;;-1.50;99.90;;;;;;5024639;28;20473;-69
2023/01/29 01:58:00;;;;;;;1999.90;999.90;;;-1.60;99.90;;;;;;5019863;28;20931;-69
2023/01/29 02:00:27;;;;;;;1999.90;999.90;;;-1.80;99.90;;;;;;5029434;28;20438;-69
2023/01/29 02:11:16;;;;;;;1999.90;999.90;;;-1.80;99.90;;;;;;5028185;28;20429;-69
2023/01/29 02:13:44;;;;;;;1999.90;999.90;;;-1.60;99.90;;;;;;5030329;28;20500;-70
2023/01/29 02:16:10;;;;;;;1999.90;999.90;;;-1.70;99.90;;;;;;5028986;28;20435;-72
2023/01/29 02:18:38;;;;;;;1999.90;999.90;;;-1.70;99.90;;;;;;5029674;28;20846;-72
2023/01/29 02:21:24;;;;;;;1999.90;999.90;;;-1.60;99.90;;;;;;5028005;28;20776;-68
2023/01/29 02:24:35;;;;;;;1999.90;999.90;;;-1.70;99.90;;;;;;5020057;28;20435;-72
2023/01/29 02:27:09;;;;;;;1999.90;999.90;;;-1.40;99.90;;;;;;4997051;28;20430;-71
2023/01/29 02:29:47;;;;;;;1999.90;999.90;;;-1.50;99.90;;;;;;5027905;28;20955;-72
2023/01/29 02:32:23;;;;;;;1999.90;999.90;;;-1.60;99.90;;;;;;5028776;28;20556;-72
2023/01/29 02:37:54;;;;;;;1999.90;999.90;;;-1.70;99.90;;;;;;5029349;28;20422;-71
2023/01/29 02:40:30;;;;;;;1999.90;999.90;;;-1.70;99.90;;;;;;5028904;28;20504;-71
2023/01/29 02:43:04;;;;;;;1999.90;999.90;;;-1.80;99.90;;;;;;5029142;28;20441;-72
2023/01/29 02:45:37;;;;;;;1999.90;999.90;;;-1.80;99.90;;;;;;5029387;28;20482;-72
2023/01/29 02:48:04;;;;;;;1999.90;999.90;;;-1.80;99.90;;;;;;5029212;28;20439;-68
2023/01/29 02:50:37;;;;;;;1999.90;999.90;;;-1.80;99.90;;;;;;5027960;28;20438;-70
2023/01/29 02:53:09;;;;;;;1999.90;999.90;;;-2.00;99.90;;;;;;5029085;28;20485;-68
2023/01/29 02:55:40;;;;;;;1999.90;999.90;;;-2.10;99.90;;;;;;5029064;28;20513;-70
2023/01/29 02:58:13;;;;;;;1999.90;999.90;;;-2.10;99.90;;;;;;5035200;28;20984;-68
2023/01/29 03:00:45;;;;;;;1999.90;999.90;;;-2.00;99.90;;;;;;5032908;28;20427;-70
2023/01/29 03:03:16;;;;;;;1999.90;999.90;;;-1.90;99.90;;;;;;5031800;28;20443;-70
2023/01/29 03:05:52;;;;;;;1999.90;999.90;;;-1.70;99.90;;;;;;5029910;28;20431;-70
2023/01/29 03:08:23;;;;;;;1999.90;999.90;;;-1.70;99.90;;;;;;5031621;28;20439;-71
2023/01/29 03:10:55;;;;;;;1999.90;999.90;;;-2.00;99.90;;;;;;5030107;28;20435;-70
2023/01/29 03:13:29;;;;;;;1999.90;999.90;;;-2.00;99.90;;;;;;5034154;28;20862;-70
2023/01/29 03:16:03;;;;;;;1999.90;999.90;;;-2.10;99.90;;;;;;5028093;28;20438;-69
2023/01/29 03:18:34;;;;;;;1999.90;999.90;;;-2.10;99.90;;;;;;5027882;28;20435;-70
2023/01/29 03:21:48;;;;;;;1999.90;999.90;;;-2.00;99.90;;;;;;5028207;28;20469;-70
2023/01/29 03:32:08;;;;;;;1999.90;999.90;;;-1.70;99.90;;;;;;5028257;28;20880;-69
2023/01/29 03:34:42;;;;;;;1999.90;999.90;;;-1.60;99.90;;;;;;5026035;28;20425;-72
2023/01/29 03:37:14;;;;;;;1999.90;999.90;;;-1.50;99.90;;;;;;5027361;28;20437;-69
2023/01/29 03:39:40;;;;;;;1999.90;999.90;;;-1.30;99.90;;;;;;5028460;28;20919;-70
2023/01/29 03:42:15;;;;;;;1999.90;999.90;;;-0.60;99.90;;;;;;5028573;28;20427;-70
2023/01/29 03:44:51;;;;;;;1999.90;999.90;;;-1.10;99.90;;;;;;5031002;28;20481;-70
2023/01/29 03:47:23;;;;;;;1999.90;999.90;;;-1.00;99.90;;;;;;5026076;28;20435;-73
2023/01/29 03:49:59;;;;;;;1999.90;999.90;;;-1.00;99.90;;;;;;5027768;28;20431;-73
2023/01/29 03:52:33;;;;;;;1999.90;999.90;;;-1.00;99.90;;;;;;5027139;28;20440;-69
2023/01/29 03:55:09;;;;;;;1999.90;999.90;;;-1.00;99.90;;;;;;5024564;28;20532;-71
2023/01/29 03:57:40;;;;;;;1999.90;999.90;;;-0.90;99.90;;;;;;5025145;28;20470;-70
2023/01/29 04:00:13;;;;;;;1999.90;999.90;;;-0.30;99.90;;;;;;5027667;28;20789;-72
2023/01/29 04:02:51;;;;;;;1999.90;999.90;;;-0.70;99.90;;;;;;5026544;28;20431;-74
2023/01/29 04:05:21;;;;;;;1999.90;999.90;;;-0.50;99.90;;;;;;5027045;28;20431;-73
2023/01/29 04:07:53;;;;;;;1999.90;999.90;;;-0.40;99.90;;;;;;5028084;28;20435;-73
2023/01/29 04:10:24;;;;;;;1999.90;999.90;;;-0.30;99.90;;;;;;5027594;28;20430;-73
2023/01/29 04:12:54;;;;;;;1999.90;999.90;;;-0.20;99.90;;;;;;5023758;28;20435;-72
2023/01/29 04:15:24;;;;;;;1999.90;999.90;;;-0.20;99.90;;;;;;5026779;28;20977;-73
2023/01/29 04:17:53;;;;;;;1999.90;999.90;;;-0.20;99.90;;;;;;5022487;28;20504;-73
2023/01/29 04:20:20;;;;;;;1999.90;999.90;;;0.20;99.90;;;;;;5026077;28;20431;-72
2023/01/29 04:22:49;;;;;;;1999.90;999.90;;;0.00;99.90;;;;;;5030647;28;20434;-72
2023/01/29 04:25:25;;;;;;;1999.90;999.90;;;0.20;99.90;;;;;;5031443;28;20435;-71
2023/01/29 04:28:04;;;;;;;1999.90;999.90;;;0.40;99.90;;;;;;5029242;28;20434;-72
2023/01/29 04:30:40;;;;;;;1999.90;999.90;;;-0.10;99.90;;;;;;5030736;28;20439;-71
2023/01/29 04:33:18;;;;;;;1999.90;999.90;;;-0.10;99.90;;;;;;5026505;28;20443;-71
2023/01/29 04:36:04;;;;;;;1999.90;999.90;;;0.10;99.90;;;;;;5030276;28;20426;-70
2023/01/29 04:38:40;;;;;;;1999.90;999.90;;;0.20;99.90;;;;;;5030961;28;20524;-71
2023/01/29 04:41:13;;;;;;;1999.90;999.90;;;0.30;99.90;;;;;;5031701;28;20525;-70
2023/01/29 04:43:44;;;;;;;1999.90;999.90;;;0.00;99.90;;;;;;5031776;28;20439;-71
2023/01/29 04:46:17;;;;;;;1999.90;999.90;;;0.60;99.90;;;;;;5030381;28;20430;-71
2023/01/29 04:49:00;;;;;;;1999.90;999.90;;;0.50;99.90;;;;;;5029114;28;20832;-72
2023/01/29 04:51:35;;;;;;;1999.90;999.90;;;0.40;99.90;;;;;;5028194;28;20430;-71
2023/01/29 04:54:09;;;;;;;1999.90;999.90;;;0.40;99.90;;;;;;5031329;28;20521;-70
2023/01/29 04:56:43;;;;;;;1999.90;999.90;;;0.40;99.90;;;;;;5031226;28;20437;-70
2023/01/29 04:59:14;;;;;;;1999.90;999.90;;;0.30;99.90;;;;;;5031799;28;20438;-72
2023/01/29 05:01:41;;;;;;;1999.90;999.90;;;0.40;99.90;;;;;;5031082;28;20916;-71
2023/01/29 05:04:13;;;;;;;1999.90;999.90;;;0.50;99.90;;;;;;5030259;28;20435;-69
2023/01/29 05:06:41;;;;;;;1999.90;999.90;;;0.40;99.90;;;;;;5029502;28;20444;-71
2023/01/29 05:09:09;;;;;;;1999.90;999.90;;;0.50;99.90;;;;;;5031451;28;20842;-72
2023/01/29 05:11:36;;;;;;;1999.90;999.90;;;0.40;99.90;;;;;;5030506;28;20525;-72
2023/01/29 05:14:06;;;;;;;1999.90;999.90;;;0.30;99.90;;;;;;5031145;28;20439;-71
2023/01/29 05:16:40;;;;;;;1999.90;999.90;;;0.40;99.90;;;;;;5029501;28;20438;-71
2023/01/29 05:19:08;;;;;;;1999.90;999.90;;;0.30;99.90;;;;;;5029221;28;20436;-72
2023/01/29 05:21:37;;;;;;;1999.90;999.90;;;0.40;99.90;;;;;;5026935;28;20975;-71
2023/01/29 05:24:11;;;;;;;1999.90;999.90;;;0.20;99.90;;;;;;5031557;28;20846;-71
2023/01/29 05:29:22;;;;;;;1999.90;999.90;;;0.60;99.90;;;;;;5029594;28;20553;-71
2023/01/29 05:31:49;;;;;;;1999.90;999.90;;;0.70;99.90;;;;;;5030798;28;20942;-71
2023/01/29 05:34:16;;;;;;;1999.90;999.90;;;0.40;99.90;;;;;;5027913;28;20492;-71
2023/01/29 05:36:44;;;;;;;1999.90;999.90;;;0.50;99.90;;;;;;5027704;28;20526;-72
2023/01/29 05:39:10;;;;;;;1999.90;999.90;;;0.60;99.90;;;;;;5030007;28;20972;-72
2023/01/29 05:41:37;;;;;;;1999.90;999.90;;;0.70;99.90;;;;;;5028789;28;20925;-72
2023/01/29 05:44:04;;;;;;;1999.90;999.90;;;0.90;99.90;;;;;;5030991;28;20435;-70
2023/01/29 05:46:30;;;;;;;1999.90;999.90;;;1.00;99.90;;;;;;5029721;28;20459;-69
2023/01/29 05:48:58;;;;;;;1999.90;999.90;;;1.50;99.90;;;;;;5030064;28;20481;-69
2023/01/29 05:51:24;;;;;;;1999.90;999.90;;;1.00;99.90;;;;;;5026870;28;20434;-70
2023/01/29 05:53:53;;;;;;;1999.90;999.90;;;1.20;99.90;;;;;;5029796;28;20480;-71
2023/01/29 05:56:19;;;;;;;1999.90;999.90;;;1.20;99.90;;;;;;5029839;28;20435;-70
2023/01/29 05:58:46;;;;;;;1999.90;999.90;;;1.30;99.90;;;;;;5030053;28;20450;-71
2023/01/29 06:01:15;;;;;;;1999.90;999.90;;;1.30;99.90;;;;;;5030791;28;20435;-70
2023/01/29 06:03:42;;;;;;;1999.90;999.90;;;1.30;99.90;;;;;;5029294;28;20895;-71
2023/01/29 06:06:09;;;;;;;1999.90;999.90;;;1.30;99.90;;;;;;5029896;28;20431;-70
2023/01/29 06:08:36;;;;;;;1999.90;999.90;;;1.40;99.90;;;;;;5028926;28;20447;-70
2023/01/29 06:11:07;;;;;;;1999.90;999.90;;;1.50;99.90;;;;;;5029772;28;20439;-70
2023/01/29 06:13:33;;;;;;;1999.90;999.90;;;1.50;99.90;;;;;;5029122;28;20460;-70
2023/01/29 06:16:00;;;;;;;1999.90;999.90;;;1.60;99.90;;;;;;5029243;28;20862;-70
2023/01/29 06:18:27;;;;;;;1999.90;999.90;;;1.60;99.90;;;;;;5028557;28;20923;-70
2023/01/29 06:21:04;;;;;;;1999.90;999.90;;;1.60;99.90;;;;;;5029955;28;20480;-67
2023/01/29 06:23:31;;;;;;;1999.90;999.90;;;1.90;99.90;;;;;;5029983;28;20500;-71
2023/01/29 06:26:00;;;;;;;1999.90;999.90;;;2.00;99.90;;;;;;5023765;28;20426;-71
2023/01/29 06:28:28;;;;;;;1999.90;999.90;;;1.80;99.90;;;;;;5028083;28;20430;-70
2023/01/29 06:30:58;;;;;;;1999.90;999.90;;;1.80;99.90;;;;;;5029714;28;20431;-71
2023/01/29 06:33:25;;;;;;;1999.90;999.90;;;2.10;99.90;;;;;;5028513;28;20431;-72
2023/01/29 06:35:56;;;;;;;1999.90;999.90;;;2.00;99.90;;;;;;5029006;28;20435;-70
2023/01/29 06:38:23;;;;;;;1999.90;999.90;;;1.80;99.90;;;;;;5028252;28;20439;-71
2023/01/29 06:40:50;;;;;;;1999.90;999.90;;;2.00;99.90;;;;;;5029393;28;20441;-69
2023/01/29 06:43:16;;;;;;;1999.90;999.90;;;2.00;99.90;;;;;;5029537;28;20435;-70
2023/01/29 06:45:49;;;;;;;1999.90;999.90;;;1.80;99.90;;;;;;5028907;28;20435;-71
2023/01/29 06:48:15;;;;;;;1999.90;999.90;;;1.70;99.90;;;;;;5028953;28;20988;-71
2023/01/29 06:50:42;;;;;;;1999.90;999.90;;;1.70;99.90;;;;;;5028660;28;20435;-71
2023/01/29 06:53:09;;;;;;;1999.90;999.90;;;1.50;99.90;;;;;;5029405;28;20903;-69
2023/01/29 06:55:35;;;;;;;1999.90;999.90;;;1.50;99.90;;;;;;5028991;28;20439;-70
2023/01/29 06:58:05;;;;;;;1999.90;999.90;;;1.50;99.90;;;;;;5029789;28;20431;-71
2023/01/29 07:00:32;;;;;;;1999.90;999.90;;;1.40;99.90;;;;;;5028487;28;20930;-71
2023/01/29 07:03:00;;;;;;;1999.90;999.90;;;1.50;99.90;;;;;;5027174;28;20796;-68
2023/01/29 07:05:27;;;;;;;1999.90;999.90;;;1.60;99.90;;;;;;5028034;28;20438;-70
2023/01/29 07:07:54;;;;;;;1999.90;999.90;;;1.60;99.90;;;;;;5028251;28;20435;-70
2023/01/29 07:10:21;;;;;;;1999.90;999.90;;;1.60;99.90;;;;;;5028577;28;20435;-69
2023/01/29 07:12:47;;;;;;;1999.90;999.90;;;1.80;99.90;;;;;;5028264;28;20489;-69
2023/01/29 07:15:18;;;;;;;1999.90;999.90;;;1.90;99.90;;;;;;5028910;28;20432;-71
2023/01/29 07:17:45;;;;;;;1999.90;999.90;;;2.00;99.90;;;;;;5026927;28;20426;-70
2023/01/29 07:20:13;;;;;;;1999.90;999.90;;;2.00;99.90;;;;;;5026339;28;20524;-72
2023/01/29 07:22:39;;;;;;;1999.90;999.90;;;2.10;99.90;;;;;;5025219;28;20455;-69
2023/01/29 07:25:08;;;;;;;1999.90;999.90;;;2.20;99.90;;;;;;5023310;28;20484;-69
2023/01/29 07:27:34;;;;;;;1999.90;999.90;;;2.20;99.90;;;;;;5025651;28;20927;-69
2023/01/29 07:30:01;;;;;;;1999.90;999.90;;;2.10;99.90;;;;;;5024623;28;20510;-71
2023/01/29 07:32:28;;;;;;;1999.90;999.90;;;2.00;99.90;;;;;;5031236;28;20418;-70
2023/01/29 07:34:55;;;;;;;1999.90;999.90;;;2.00;99.90;;;;;;5030481;28;20422;-71
2023/01/29 07:37:23;;;;;;;1999.90;999.90;;;2.00;99.90;;;;;;5029627;28;20440;-70
2023/01/29 07:39:50;;;;;;;1999.90;999.90;;;2.10;99.90;;;;;;5022039;28;20493;-71
2023/01/29 07:42:16;;;;;;;1999.90;999.90;;;2.20;99.90;;;;;;5024636;28;20435;-70
2023/01/29 07:44:43;;;;;;;1999.90;999.90;;;2.20;99.90;;;;;;5018377;28;20462;-70
2023/01/29 07:47:09;;;;;;;1999.90;999.90;;;2.20;99.90;;;;;;5029167;28;20426;-70
2023/01/29 07:49:36;;;;;;;1999.90;999.90;;;2.10;99.90;;;;;;5026466;28;20485;-71
2023/01/29 07:52:03;;;;;;;1999.90;999.90;;;2.20;99.90;;;;;;5022969;28;20509;-69
2023/01/29 07:54:31;;;;;;;1999.90;999.90;;;2.20;99.90;;;;;;5027805;28;20438;-70
2023/01/29 07:56:58;;;;;;;1999.90;999.90;;;2.10;99.90;;;;;;5026310;28;20723;-69
2023/01/29 07:59:24;;;;;;;1999.90;999.90;;;2.20;99.90;;;;;;5026967;28;20439;-69
2023/01/29 08:01:51;;;;;;;1999.90;999.90;;;2.30;99.90;;;;;;5028199;28;20915;-70
2023/01/29 08:04:17;;;;;;;1999.90;999.90;;;2.20;99.90;;;;;;5026298;28;20493;-70
2023/01/29 08:06:44;;;;;;;1999.90;999.90;;;2.30;99.90;;;;;;5025899;28;20431;-71
2023/01/29 08:09:11;;;;;;;1999.90;999.90;;;2.20;99.90;;;;;;5028372;28;20430;-68
2023/01/29 08:11:39;;;;;;;1999.90;999.90;;;2.20;99.90;;;;;;5026776;28;20439;-68
2023/01/29 08:14:07;;;;;;;1999.90;999.90;;;2.30;99.90;;;;;;5021795;28;20465;-71
2023/01/29 08:16:33;;;;;;;1999.90;999.90;;;2.30;99.90;;;;;;5027571;28;20434;-71
2023/01/29 08:19:01;;;;;;;1999.90;999.90;;;2.30;99.90;;;;;;5024836;28;20495;-71
2023/01/29 08:21:28;;;;;;;1999.90;999.90;;;2.30;99.90;;;;;;5020582;28;20501;-70
2023/01/29 08:23:55;;;;;;;1999.90;999.90;;;2.10;99.90;;;;;;5011004;28;20479;-71
2023/01/29 08:26:21;;;;;;;1999.90;999.90;;;2.20;99.90;;;;;;5009623;28;20424;-70
2023/01/29 08:28:49;;;;;;;1999.90;999.90;;;2.10;99.90;;;;;;5009920;28;20888;-70
2023/01/29 08:31:19;;;;;;;1999.90;999.90;;;2.20;99.90;;;;;;5010792;28;20413;-71
2023/01/29 08:33:46;;;;;;;1999.90;999.90;;;2.20;99.90;;;;;;5015715;28;20462;-71
2023/01/29 08:36:12;;;;;;;1999.90;999.90;;;2.40;99.90;;;;;;5020274;28;20827;-70
2023/01/29 08:38:39;;;;;;;1999.90;999.90;;;2.50;99.90;;;;;;5021742;28;20780;-69
2023/01/29 08:41:06;;;;;;;1999.90;999.90;;;2.60;99.90;;;;;;5030237;28;20473;-69
2023/01/29 08:43:35;;;;;;;1999.90;999.90;;;2.70;99.90;;;;;;5030320;28;20510;-70
2023/01/29 08:46:04;;;;;;;1999.90;999.90;;;2.80;99.90;;;;;;5029903;28;20463;-69
2023/01/29 08:48:30;;;;;;;1999.90;999.90;;;2.80;99.90;;;;;;5030190;28;20468;-70
2023/01/29 08:50:58;;;;;;;1999.90;999.90;;;3.00;99.90;;;;;;5028478;28;20427;-69
2023/01/29 08:53:24;;;;;;;1999.90;999.90;;;3.00;99.90;;;;;;5028493;28;20437;-70
2023/01/29 08:55:51;;;;;;;1999.90;999.90;;;3.00;99.90;;;;;;5022529;28;20827;-69
2023/01/29 08:58:18;;;;;;;1999.90;999.90;;;3.00;99.90;;;;;;5030226;28;20469;-70
2023/01/29 09:00:45;;;;;;;1999.90;999.90;;;3.00;99.90;;;;;;5030148;28;20422;-70
2023/01/29 09:03:13;;;;;;;1999.90;999.90;;;3.10;99.90;;;;;;5029642;28;20792;-69
2023/01/29 09:05:40;;;;;;;1999.90;999.90;;;3.10;99.90;;;;;;5026563;28;20996;-68
2023/01/29 09:08:09;;;;;;;1999.90;999.90;;;3.10;99.90;;;;;;5023000;28;20826;-67
2023/01/29 09:10:36;;;;;;;1999.90;999.90;;;3.20;99.90;;;;;;5029290;28;20540;-71
2023/01/29 09:13:03;;;;;;;1999.90;999.90;;;3.20;99.90;;;;;;5028135;28;20418;-71
2023/01/29 09:15:30;;;;;;;1999.90;999.90;;;3.30;99.90;;;;;;5033261;28;20501;-69
2023/01/29 09:17:56;;;;;;;1999.90;999.90;;;3.40;99.90;;;;;;5033709;28;20417;-69
2023/01/29 09:20:24;;;;;;;1999.90;999.90;;;3.30;99.90;;;;;;5033567;28;20510;-69
2023/01/29 09:22:52;;;;;;;1999.90;999.90;;;3.20;99.90;;;;;;5033372;28;20419;-70
2023/01/29 09:25:19;;;;;;;1999.90;999.90;;;3.20;99.90;;;;;;5024457;28;20502;-71
2023/01/29 09:27:45;;;;;;;1999.90;999.90;;;3.20;99.90;;;;;;5012682;28;20434;-69
2023/01/29 09:30:13;;;;;;;1999.90;999.90;;;3.10;99.90;;;;;;5013394;28;20847;-69
2023/01/29 09:32:39;;;;;;;1999.90;999.90;;;3.10;99.90;;;;;;5013568;28;20417;-69
2023/01/29 09:35:08;;;;;;;1999.90;999.90;;;3.10;99.90;;;;;;5013478;28;20490;-69
2023/01/29 09:37:36;;;;;;;1999.90;999.90;;;3.00;99.90;;;;;;5019790;28;20894;-69
2023/01/29 09:40:02;;;;;;;1999.90;999.90;;;3.20;99.90;;;;;;5033262;28;20471;-70
2023/01/29 09:42:38;;;;;;;1999.90;999.90;;;3.20;99.90;;;;;;5031061;28;20895;-69
2023/01/29 09:45:11;;;;;;;1999.90;999.90;;;3.30;99.90;;;;;;5032774;28;20780;-70
2023/01/29 09:47:38;;;;;;;1999.90;999.90;;;3.40;99.90;;;;;;5032639;28;20439;-69
2023/01/29 09:50:07;;;;;;;1999.90;999.90;;;3.30;99.90;;;;;;5033091;28;20411;-70
2023/01/29 09:52:39;;;;;;;1999.90;999.90;;;3.30;99.90;;;;;;5032087;28;20439;-70
2023/01/29 09:55:14;;;;;;;1999.90;999.90;;;3.30;99.90;;;;;;5024526;28;20442;-69
2023/01/29 09:57:48;;;;;;;1999.90;999.90;;;3.40;99.90;;;;;;5032531;28;20410;-69
2023/01/29 10:00:16;;;;;;;1999.90;999.90;;;3.40;99.90;;;;;;5033032;28;20477;-69
2023/01/29 10:02:57;;;;;;;1999.90;999.90;;;3.40;99.90;;;;;;5033099;28;20465;-70
2023/01/29 10:05:43;;;;;;;1999.90;999.90;;;3.50;99.90;;;;;;5032412;28;20500;-69
2023/01/29 10:08:33;;;;;;;1999.90;999.90;;;3.60;99.90;;;;;;5031736;28;20489;-70
2023/01/29 10:11:08;;;;;;;1999.90;999.90;;;3.50;99.90;;;;;;5024863;28;20446;-70
2023/01/29 10:13:44;;;;;;;1999.90;999.90;;;3.60;99.90;;;;;;5032557;28;20795;-69
2023/01/29 10:16:29;;;;;;;1999.90;999.90;;;3.50;99.90;;;;;;5031808;28;20415;-67
2023/01/29 10:19:25;;;;;;;1999.90;999.90;;;3.50;99.90;;;;;;5031789;28;20465;-70
2023/01/29 10:22:09;;;;;;;1999.90;999.90;;;3.60;99.90;;;;;;5027812;28;20433;-70
2023/01/29 10:24:43;;;;;;;1999.90;999.90;;;3.70;99.90;;;;;;5023658;28;20426;-68
2023/01/29 10:27:14;;;;;;;1999.90;999.90;;;3.80;99.90;;;;;;5031730;28;20492;-69
2023/01/29 10:29:43;;;;;;;1999.90;999.90;;;3.90;99.90;;;;;;5032275;28;20407;-68
2023/01/29 10:32:16;;;;;;;1999.90;999.90;;;3.90;99.90;;;;;;5032327;28;20422;-69
2023/01/29 10:34:46;;;;;;;1999.90;999.90;;;4.00;99.90;;;;;;5032276;28;20567;-69
2023/01/29 10:37:17;;;;;;;1999.90;999.90;;;4.20;99.90;;;;;;5030974;28;20438;-68
2023/01/29 10:39:45;;;;;;;1999.90;999.90;;;4.30;99.90;;;;;;5011972;28;20905;-69
2023/01/29 10:42:21;;;;;;;1999.90;999.90;;;4.40;99.90;;;;;;5012499;28;20420;-70
2023/01/29 10:45:03;;;;;;;1999.90;999.90;;;4.50;99.90;;;;;;5012348;28;20417;-69
2023/01/29 10:47:55;;;;;;;1999.90;999.90;;;4.60;99.90;;;;;;5011934;28;20428;-69
2023/01/29 10:50:37;;;;;;;1999.90;999.90;;;4.60;99.90;;;;;;5014378;28;20501;-70
2023/01/29 10:53:20;;;;;;;1999.90;999.90;;;4.50;99.90;;;;;;5023270;28;20477;-69
2023/01/29 10:55:57;;;;;;;1999.90;999.90;;;4.50;99.90;;;;;;5031662;28;20428;-70
2023/01/29 10:58:31;;;;;;;1999.90;999.90;;;4.20;99.90;;;;;;5031885;28;20501;-69
2023/01/29 11:00:58;;;;;;;1999.90;999.90;;;4.40;99.90;;;;;;5031785;28;20461;-69
2023/01/29 11:03:27;;;;;;;1999.90;999.90;;;4.60;99.90;;;;;;5031587;28;20460;-69
2023/01/29 11:05:58;;;;;;;1999.90;999.90;;;4.50;99.90;;;;;;5029703;28;20441;-69
2023/01/29 11:08:29;;;;;;;1999.90;999.90;;;4.60;99.90;;;;;;5023013;28;20842;-69
2023/01/29 11:11:06;;;;;;;1999.90;999.90;;;4.60;99.90;;;;;;5031692;28;20473;-69
2023/01/29 11:13:38;;;;;;;1999.90;999.90;;;4.60;99.90;;;;;;5032911;28;20443;-68
2023/01/29 11:16:06;;;;;;;1999.90;999.90;;;4.50;99.90;;;;;;5028105;28;20444;-66
2023/01/29 11:18:51;;;;;;;1999.90;999.90;;;4.60;99.90;;;;;;5029842;28;20426;-68
2023/01/29 11:21:18;;;;;;;1999.90;999.90;;;4.70;99.90;;;;;;5035062;28;20443;-66
2023/01/29 11:23:45;;;;;;;1999.90;999.90;;;4.70;99.90;;;;;;5034085;28;20500;-68
2023/01/29 11:26:17;;;;;;;1999.90;999.90;;;4.50;99.90;;;;;;5025155;28;20501;-69
2023/01/29 11:28:46;;;;;;;1999.90;999.90;;;4.50;99.90;;;;;;5023096;28;20852;-68
2023/01/29 11:31:23;;;;;;;1999.90;999.90;;;4.60;99.90;;;;;;5028202;28;20444;-69
2023/01/29 11:33:53;;;;;;;1999.90;999.90;;;4.50;99.90;;;;;;5028784;28;20919;-68
2023/01/29 11:36:36;;;;;;;1999.90;999.90;;;4.50;99.90;;;;;;5030022;28;20419;-68
2023/01/29 11:39:14;;;;;;;1999.90;999.90;;;4.50;99.90;;;;;;5030676;28;20513;-69
2023/01/29 11:41:47;;;;;;;1999.90;999.90;;;4.50;99.90;;;;;;5030214;28;20426;-70
2023/01/29 11:44:29;;;;;;;1999.90;999.90;;;4.40;99.90;;;;;;5030814;28;20496;-68
2023/01/29 11:46:58;;;;;;;1999.90;999.90;;;4.40;99.90;;;;;;5024090;28;20422;-68
2023/01/29 11:49:32;;;;;;;1999.90;999.90;;;4.40;99.90;;;;;;5024600;28;20476;-68
2023/01/29 11:52:02;;;;;;;1999.90;999.90;;;4.50;99.90;;;;;;5023891;28;20430;-68
2023/01/29 11:54:34;;;;;;;1999.90;999.90;;;4.60;99.90;;;;;;5024844;28;20427;-67
2023/01/29 11:57:03;;;;;;;1999.90;999.90;;;4.70;99.90;;;;;;5026426;28;20818;-66
2023/01/29 11:59:43;;;;;;;1999.90;999.90;;;4.70;99.90;;;;;;5027741;28;20427;-69
2023/01/29 12:02:30;;;;;;;1999.90;999.90;;;4.70;99.90;;;;;;5026920;28;20427;-69
2023/01/29 12:04:59;;;;;;;1999.90;999.90;;;4.70;99.90;;;;;;5027477;28;20901;-70
2023/01/29 12:07:27;;;;;;;1999.90;999.90;;;4.60;99.90;;;;;;5027504;28;20418;-70
2023/01/29 12:09:56;;;;;;;1999.90;999.90;;;4.70;99.90;;;;;;5028367;28;20481;-70
2023/01/29 12:12:36;;;;;;;1999.90;999.90;;;4.90;99.90;;;;;;5027718;28;20481;-69
2023/01/29 12:15:10;;;;;;;1999.90;999.90;;;4.80;99.90;;;;;;5025216;28;20435;-70
2023/01/29 12:17:39;;;;;;;1999.90;999.90;;;4.80;99.90;;;;;;5026344;28;20949;-69
2023/01/29 12:20:13;;;;;;;1999.90;999.90;;;4.80;99.90;;;;;;5026000;28;20481;-69
2023/01/29 12:22:45;;;;;;;1999.90;999.90;;;4.90;99.90;;;;;;5023802;28;20432;-70
2023/01/29 12:25:21;;;;;;;1999.90;999.90;;;4.90;99.90;;;;;;5053422;23;20495;-72
2023/01/29 12:27:55;;;;;;;1999.90;999.90;;;4.80;99.90;;;;;;5049575;28;20437;-72
2023/01/29 12:30:27;;;;;;;1999.90;999.90;;;4.90;99.90;;;;;;5050583;28;20455;-72
2023/01/29 12:33:00;;;;;;;1999.90;999.90;;;4.90;99.90;;;;;;5049637;28;20430;-72
2023/01/29 12:35:31;;;;;;;1999.90;999.90;;;4.90;99.90;;;;;;5047971;28;20490;-72
2023/01/29 12:38:03;;;;;;;1999.90;999.90;;;4.90;99.90;;;;;;5047950;28;20491;-72
2023/01/29 12:40:34;;;;;;;1999.90;999.90;;;4.70;99.90;;;;;;5051016;28;20839;-72
2023/01/29 12:43:11;;;;;;;1999.90;999.90;;;4.50;99.90;;;;;;5052702;28;20822;-72
2023/01/29 12:45:39;;;;;;;1999.90;999.90;;;4.20;99.90;;;;;;5054498;28;20440;-72
2023/01/29 12:48:09;;;;;;;1999.90;999.90;;;4.40;99.90;;;;;;5052746;28;20492;-72
2023/01/29 12:50:37;;;;;;;1999.90;999.90;;;4.50;99.90;;;;;;5053154;28;20437;-71